< < Back
Terminal Aerodrome Forecast


Current Version              Previous Versions:   1  2  3  4  5  6  7  8  9  

Terminal Aerodrome Forecast

083
FTUS44 KOHX 291731
TAFBNA
TAF
KBNA 291731Z 2918/3018 05008KT P6SM SCT050 SCT080
     FM300200 05004KT P6SM SKC=

Latest METAR

543
SAUS70 KWBC 292300 RRG
MTRBNA
METAR KBNA 292253Z 05008KT 10SM FEW045 SCT250 32/22 A3008 RMK AO2 SLP177
T03220217


USA.gov is the U.S. government's official web portal to all federal, state and local government web resources and services.